Time;durP1;ratioP1;P1;durP2;ratioP2;P2;SDS_P1;SDS_P2;PMS_P1;PMS_P2;Temp;Humidity;BMP_temperature;BMP_pressure;BME280_temperature;BME280_humidity;BME280_pressure;Samples;Min_cycle;Max_cycle;Signal;HPM_P1;HPM_P2
2022/11/08 00:01:32;;;;;;;9.83;5.97;;;11.20;99.90;;;;;;4916152;29;20191;-81
2022/11/08 00:04:00;;;;;;;10.47;6.23;;;11.20;99.90;;;;;;4916076;29;20657;-77
2022/11/08 00:14:41;;;;;;;31.90;11.23;;;11.20;99.90;;;;;;4916598;29;20742;-80
2022/11/08 00:17:10;;;;;;;29.67;12.40;;;11.20;99.90;;;;;;4916238;29;20242;-79
2022/11/08 00:19:37;;;;;;;14.03;7.17;;;11.20;99.90;;;;;;4936146;29;20207;-80
2022/11/08 00:22:04;;;;;;;11.83;5.70;;;11.20;99.90;;;;;;4938989;28;20279;-79
2022/11/08 00:24:33;;;;;;;18.90;7.30;;;11.20;99.90;;;;;;4938680;29;20261;-78
2022/11/08 00:27:00;;;;;;;14.00;5.23;;;11.20;99.90;;;;;;4938811;29;20294;-80
2022/11/08 00:29:27;;;;;;;14.13;5.50;;;11.20;99.90;;;;;;4938838;29;20243;-78
2022/11/08 00:31:55;;;;;;;11.40;5.40;;;11.20;99.90;;;;;;4939117;29;20243;-79
2022/11/08 00:34:23;;;;;;;12.00;5.70;;;11.20;99.90;;;;;;4938966;28;20207;-82
2022/11/08 00:36:52;;;;;;;22.87;7.90;;;11.20;52.30;;;;;;4938788;29;20201;-79
2022/11/08 00:39:20;;;;;;;19.07;7.00;;;11.20;54.80;;;;;;4938346;29;20625;-79
2022/11/08 00:41:47;;;;;;;13.90;5.80;;;11.20;98.20;;;;;;4926996;29;20254;-82
2022/11/08 00:44:14;;;;;;;10.93;5.40;;;11.20;99.90;;;;;;4919283;29;20563;-80
2022/11/08 00:46:41;;;;;;;19.10;9.73;;;11.20;99.90;;;;;;4920093;29;20212;-81
2022/11/08 00:49:09;;;;;;;24.70;11.50;;;11.20;99.90;;;;;;4919167;29;20273;-81
2022/11/08 00:51:38;;;;;;;18.10;8.47;;;11.10;99.90;;;;;;4919335;29;20208;-79
2022/11/08 00:54:06;;;;;;;11.90;5.80;;;11.10;82.30;;;;;;4919210;29;20667;-81
2022/11/08 00:56:34;;;;;;;8.73;4.80;;;11.10;81.70;;;;;;4919446;29;20574;-78
2022/11/08 00:59:01;;;;;;;8.00;4.73;;;11.10;99.90;;;;;;4919272;29;20208;-80
2022/11/08 01:01:28;;;;;;;12.53;6.10;;;11.10;57.80;;;;;;4919659;29;20220;-80
2022/11/08 01:03:56;;;;;;;9.57;5.00;;;11.00;99.90;;;;;;4935759;29;20211;-80
2022/11/08 01:06:25;;;;;;;11.17;4.33;;;11.00;99.90;;;;;;4938130;28;20207;-79
2022/11/08 01:08:56;;;;;;;7.63;4.77;;;11.00;99.90;;;;;;4938092;28;20206;-80
2022/11/08 01:11:25;;;;;;;10.60;5.43;;;11.00;99.90;;;;;;4937834;29;20299;-80
2022/11/08 01:13:55;;;;;;;8.60;4.90;;;11.00;99.90;;;;;;4937794;29;20243;-79
2022/11/08 01:16:24;;;;;;;13.07;5.47;;;11.00;99.90;;;;;;4938109;29;20200;-78
2022/11/08 01:18:53;;;;;;;8.40;4.97;;;11.10;99.90;;;;;;4937808;29;20219;-79
2022/11/08 01:21:21;;;;;;;7.03;4.57;;;11.10;99.90;;;;;;4937683;29;20628;-78
2022/11/08 01:23:48;;;;;;;10.90;5.10;;;11.10;99.90;;;;;;4938072;29;20214;-78
2022/11/08 01:26:19;;;;;;;10.47;5.03;;;11.10;99.90;;;;;;4937861;29;20199;-80
2022/11/08 01:28:46;;;;;;;11.83;4.70;;;11.10;99.90;;;;;;4938000;29;20187;-80
2022/11/08 01:31:15;;;;;;;10.20;4.33;;;11.00;99.90;;;;;;4936271;29;20577;-81
2022/11/08 01:33:43;;;;;;;8.73;3.97;;;11.00;99.90;;;;;;4937778;29;20199;-79
2022/11/08 01:36:12;;;;;;;9.07;4.70;;;11.00;99.90;;;;;;4937391;29;20687;-79
2022/11/08 01:38:39;;;;;;;12.73;5.20;;;11.00;99.90;;;;;;4937325;29;20285;-79
2022/11/08 01:41:08;;;;;;;8.70;4.60;;;11.00;99.90;;;;;;4937900;29;20204;-78
2022/11/08 01:43:42;;;;;;;10.13;5.23;;;10.90;99.90;;;;;;4937435;29;20214;-81
2022/11/08 01:46:34;;;;;;;8.40;4.80;;;10.90;99.90;;;;;;4937504;29;20696;-80
2022/11/08 01:49:18;;;;;;;9.70;4.57;;;10.80;99.90;;;;;;4937715;29;20191;-79
2022/11/08 01:51:50;;;;;;;12.47;4.37;;;10.70;99.90;;;;;;4937241;29;20719;-79
2022/11/08 01:54:23;;;;;;;7.50;4.40;;;10.60;99.90;;;;;;4937560;28;20211;-79
2022/11/08 01:56:50;;;;;;;8.63;4.30;;;10.60;1.00;;;;;;4937547;28;20206;-77
2022/11/08 01:59:20;;;;;;;9.50;5.07;;;10.50;1.00;;;;;;4937030;29;20553;-79
2022/11/08 02:01:47;;;;;;;11.00;4.40;;;10.40;1.00;;;;;;4937202;29;20206;-79
2022/11/08 02:04:16;;;;;;;8.60;4.10;;;10.20;1.00;;;;;;4937393;29;20206;-78
2022/11/08 02:06:44;;;;;;;10.10;4.70;;;10.10;99.90;;;;;;4937346;28;20219;-78
2022/11/08 02:09:16;;;;;;;6.70;4.40;;;9.90;99.90;;;;;;4937296;29;20210;-80
2022/11/08 02:11:43;;;;;;;7.80;4.40;;;9.80;1.00;;;;;;4937125;29;20276;-79
2022/11/08 02:14:11;;;;;;;10.43;4.60;;;9.80;1.00;;;;;;4936835;28;20241;-79
2022/11/08 02:16:40;;;;;;;9.77;4.60;;;9.70;99.90;;;;;;4937213;28;20204;-80
2022/11/08 02:19:16;;;;;;;9.57;4.80;;;9.60;99.90;;;;;;4936612;29;20600;-80
2022/11/08 02:21:49;;;;;;;7.63;4.27;;;9.50;1.00;;;;;;4936957;28;20205;-80
2022/11/08 02:24:18;;;;;;;10.00;4.97;;;9.50;1.00;;;;;;4936906;28;20564;-79
2022/11/08 02:26:46;;;;;;;9.50;4.83;;;9.40;1.00;;;;;;4936766;29;20204;-80
2022/11/08 02:29:25;;;;;;;8.57;4.60;;;9.40;1.00;;;;;;4937000;29;20236;-79
2022/11/08 02:31:52;;;;;;;9.27;4.47;;;9.30;56.00;;;;;;4936746;29;20200;-79
2022/11/08 02:34:23;;;;;;;11.97;4.50;;;9.30;93.80;;;;;;4936683;29;20208;-79
2022/11/08 02:36:51;;;;;;;9.93;4.50;;;9.30;99.90;;;;;;4936640;29;20206;-80
2022/11/08 02:39:19;;;;;;;11.33;5.23;;;9.20;99.90;;;;;;4936527;29;20205;-80
2022/11/08 02:41:46;;;;;;;12.57;5.13;;;9.10;99.90;;;;;;4936364;29;20230;-81
2022/11/08 02:44:13;;;;;;;11.63;4.73;;;9.10;99.90;;;;;;4936513;29;20205;-80
2022/11/08 02:46:41;;;;;;;8.60;4.90;;;9.10;99.90;;;;;;4936172;29;20207;-80
2022/11/08 02:49:08;;;;;;;9.80;4.93;;;9.00;99.90;;;;;;4936289;29;20219;-80
2022/11/08 02:51:35;;;;;;;8.37;4.53;;;9.00;1.00;;;;;;4936291;29;20220;-79
2022/11/08 02:54:02;;;;;;;10.37;5.10;;;9.00;1.00;;;;;;4936525;29;20209;-83
2022/11/08 02:56:31;;;;;;;10.80;5.00;;;8.90;1.00;;;;;;4935960;29;20199;-80
2022/11/08 02:58:58;;;;;;;12.93;4.93;;;8.90;1.00;;;;;;4936116;29;20233;-80
2022/11/08 03:01:25;;;;;;;10.87;4.90;;;8.90;1.00;;;;;;4936102;29;20210;-80
2022/11/08 03:03:52;;;;;;;9.23;4.87;;;8.80;1.00;;;;;;4936335;28;20214;-80
2022/11/08 03:06:20;;;;;;;9.47;5.00;;;8.80;1.00;;;;;;4936207;29;20207;-81
2022/11/08 03:08:47;;;;;;;12.67;5.43;;;8.80;39.40;;;;;;4935763;29;20206;-80
2022/11/08 03:11:14;;;;;;;17.53;5.53;;;8.80;99.90;;;;;;4935648;29;20232;-79
2022/11/08 03:13:43;;;;;;;13.20;5.60;;;8.80;99.90;;;;;;4935674;29;20235;-78
2022/11/08 03:16:10;;;;;;;9.07;5.33;;;8.70;99.90;;;;;;4935610;29;20211;-79
2022/11/08 03:18:37;;;;;;;10.13;5.77;;;8.70;99.90;;;;;;4936289;28;20207;-79
2022/11/08 03:21:04;;;;;;;11.13;5.03;;;8.70;99.90;;;;;;4935786;29;20743;-79
2022/11/08 03:23:32;;;;;;;8.40;4.97;;;8.70;99.90;;;;;;4935667;29;20219;-78
2022/11/08 03:26:02;;;;;;;9.60;5.53;;;8.70;99.90;;;;;;4935473;29;20203;-79
2022/11/08 03:28:29;;;;;;;9.13;5.40;;;8.60;99.90;;;;;;4935713;28;20219;-78
2022/11/08 03:30:58;;;;;;;11.37;5.80;;;8.70;99.90;;;;;;4935443;29;20223;-80
2022/11/08 03:33:26;;;;;;;10.63;5.83;;;8.60;99.90;;;;;;4935554;29;20656;-79
2022/11/08 03:35:54;;;;;;;11.23;5.73;;;8.60;1.00;;;;;;4935872;28;20567;-80
2022/11/08 03:38:21;;;;;;;10.07;6.00;;;8.60;1.00;;;;;;4935237;29;20740;-80
2022/11/08 03:40:48;;;;;;;13.77;5.63;;;8.60;1.00;;;;;;4936047;29;20215;-79
2022/11/08 03:43:17;;;;;;;10.03;5.80;;;8.70;1.00;;;;;;4935468;29;20215;-79
2022/11/08 03:45:45;;;;;;;13.73;5.77;;;8.70;1.00;;;;;;4935132;29;20654;-78
2022/11/08 03:48:14;;;;;;;11.10;5.10;;;8.70;1.00;;;;;;4935076;29;20298;-79
2022/11/08 03:50:41;;;;;;;13.33;5.60;;;8.80;1.00;;;;;;4935143;29;20233;-80
2022/11/08 03:53:08;;;;;;;12.97;5.80;;;8.80;99.90;;;;;;4935000;28;20206;-78
2022/11/08 03:55:36;;;;;;;12.53;6.00;;;8.80;99.90;;;;;;4935398;28;20211;-80
2022/11/08 03:58:03;;;;;;;9.47;5.53;;;8.70;99.90;;;;;;4935376;29;20200;-79
2022/11/08 04:00:30;;;;;;;14.07;6.13;;;8.70;99.90;;;;;;4935168;28;20239;-80
2022/11/08 04:03:02;;;;;;;9.53;5.87;;;8.70;99.90;;;;;;4935183;28;20208;-78
2022/11/08 04:05:32;;;;;;;10.47;5.93;;;8.60;1.00;;;;;;4934943;29;20191;-80
2022/11/08 04:07:59;;;;;;;11.07;5.60;;;8.60;1.00;;;;;;4935404;29;20214;-80
2022/11/08 04:10:26;;;;;;;14.40;6.00;;;8.50;1.00;;;;;;4935115;29;20219;-80
2022/11/08 04:15:39;;;;;;;11.67;5.70;;;8.40;1.00;;;;;;4935235;29;20209;-78
2022/11/08 04:23:37;;;;;;;12.07;6.27;;;8.40;1.00;;;;;;4934975;29;20182;-79
2022/11/08 04:26:06;;;;;;;12.07;6.30;;;8.40;1.00;;;;;;4934707;29;20596;-79
2022/11/08 04:28:36;;;;;;;9.90;5.80;;;8.30;1.00;;;;;;4923430;29;20249;-79
2022/11/08 04:31:05;;;;;;;13.60;5.73;;;8.30;1.00;;;;;;4919735;29;20260;-79
2022/11/08 04:33:33;;;;;;;11.30;6.13;;;8.30;1.00;;;;;;4916053;29;20209;-79
2022/11/08 04:36:07;;;;;;;14.03;6.70;;;8.30;1.00;;;;;;4915917;29;20214;-80
2022/11/08 04:38:34;;;;;;;12.80;7.47;;;8.40;1.00;;;;;;4916202;29;20209;-80
2022/11/08 04:41:02;;;;;;;17.50;11.67;;;8.40;1.00;;;;;;4915862;29;20208;-78
2022/11/08 04:43:30;;;;;;;20.00;10.93;;;8.40;1.00;;;;;;4915882;29;20211;-79
2022/11/08 04:46:02;;;;;;;12.30;7.43;;;8.40;1.00;;;;;;4918105;29;20202;-79
2022/11/08 04:48:31;;;;;;;11.00;6.80;;;8.50;1.00;;;;;;4925614;29;20272;-80
2022/11/08 04:51:06;;;;;;;12.33;6.40;;;8.50;1.00;;;;;;4925857;29;20246;-78
2022/11/08 04:53:36;;;;;;;15.63;7.53;;;8.60;1.00;;;;;;4926348;29;20251;-78
2022/11/08 04:56:10;;;;;;;10.37;6.43;;;8.60;99.90;;;;;;4925726;29;20236;-78
2022/11/08 04:58:40;;;;;;;13.40;6.80;;;8.50;99.90;;;;;;4926210;29;20208;-80
2022/11/08 05:01:12;;;;;;;12.77;7.27;;;8.50;99.90;;;;;;4926281;29;20201;-80
2022/11/08 05:03:40;;;;;;;15.20;6.50;;;8.40;99.90;;;;;;4937693;29;20203;-81
2022/11/08 05:06:14;;;;;;;9.77;6.20;;;8.30;99.90;;;;;;4948439;28;20211;-81
2022/11/08 05:08:44;;;;;;;13.53;6.33;;;8.30;1.00;;;;;;4949192;29;20205;-79
2022/11/08 05:11:14;;;;;;;8.60;6.33;;;8.20;1.00;;;;;;4948746;28;20214;-81
2022/11/08 05:13:43;;;;;;;15.83;8.47;;;8.20;1.00;;;;;;4949711;29;20601;-80
2022/11/08 05:16:14;;;;;;;11.93;6.53;;;8.20;1.00;;;;;;4948755;28;20568;-78
2022/11/08 05:18:43;;;;;;;16.43;6.43;;;8.20;1.00;;;;;;4949945;29;20291;-80
2022/11/08 05:24:00;;;;;;;11.73;6.33;;;8.40;99.90;;;;;;4949723;29;20224;-78
2022/11/08 05:26:36;;;;;;;14.13;6.40;;;8.50;99.90;;;;;;4948958;28;20221;-78
2022/11/08 05:29:07;;;;;;;13.57;6.30;;;8.60;99.90;;;;;;4949209;29;20181;-77
2022/11/08 05:31:37;;;;;;;15.07;6.63;;;8.70;99.90;;;;;;4948543;29;20222;-80
2022/11/08 05:34:06;;;;;;;14.97;6.60;;;8.80;99.90;;;;;;4949070;29;20198;-79
2022/11/08 05:36:36;;;;;;;14.00;6.27;;;8.90;67.80;;;;;;4948196;28;20218;-77
2022/11/08 05:39:04;;;;;;;10.87;6.63;;;8.90;1.00;;;;;;4948337;28;20199;-81
2022/11/08 05:41:42;;;;;;;10.23;6.27;;;9.00;1.00;;;;;;4948283;28;20222;-78
2022/11/08 05:44:10;;;;;;;13.23;6.43;;;9.00;1.00;;;;;;4948483;29;20197;-78
2022/11/08 05:46:41;;;;;;;14.93;8.03;;;9.00;1.00;;;;;;4948407;29;20259;-80
2022/11/08 05:49:09;;;;;;;17.73;9.77;;;9.00;1.00;;;;;;4948753;28;20199;-81
2022/11/08 05:51:42;;;;;;;20.53;11.23;;;8.90;1.00;;;;;;4947666;28;20252;-81
2022/11/08 05:54:13;;;;;;;14.47;7.53;;;8.90;1.00;;;;;;4948350;28;20656;-80
2022/11/08 05:56:41;;;;;;;16.47;6.67;;;8.80;1.00;;;;;;4948723;29;20190;-79
2022/11/08 05:59:12;;;;;;;13.60;7.00;;;8.70;1.00;;;;;;4933845;29;20203;-79
2022/11/08 06:01:43;;;;;;;17.13;7.63;;;8.70;25.20;;;;;;4930037;29;20271;-80
2022/11/08 06:04:12;;;;;;;17.30;9.30;;;8.70;99.90;;;;;;4940892;29;20635;-82
2022/11/08 06:09:35;;;;;;;16.50;9.33;;;8.70;99.90;;;;;;4926553;28;20207;-84
2022/11/08 06:12:03;;;;;;;14.03;8.47;;;8.70;99.90;;;;;;4921140;29;20211;-83
2022/11/08 06:14:34;;;;;;;14.90;7.73;;;8.70;99.90;;;;;;4921948;29;20376;-85
2022/11/08 06:17:01;;;;;;;15.50;8.57;;;8.70;42.80;;;;;;4918477;29;20196;-80
2022/11/08 06:19:28;;;;;;;18.13;8.67;;;8.60;1.00;;;;;;4917970;29;20532;-80
2022/11/08 06:21:56;;;;;;;14.13;8.83;;;8.60;1.00;;;;;;4917820;29;20200;-79
2022/11/08 06:24:23;;;;;;;14.90;8.60;;;8.50;79.80;;;;;;4917779;29;20198;-79
2022/11/08 06:26:50;;;;;;;14.80;8.63;;;8.50;99.90;;;;;;4917771;29;20204;-79
2022/11/08 06:29:17;;;;;;;15.60;8.17;;;8.40;99.90;;;;;;4917348;29;20251;-79
2022/11/08 06:31:44;;;;;;;14.93;7.93;;;8.40;99.90;;;;;;4920509;29;20219;-82
2022/11/08 06:34:12;;;;;;;17.03;8.90;;;8.30;99.90;;;;;;4918216;29;20202;-79
2022/11/08 06:36:39;;;;;;;18.30;9.20;;;8.30;99.90;;;;;;4917296;29;20216;-78
2022/11/08 06:39:08;;;;;;;18.87;8.83;;;8.30;99.90;;;;;;4917550;29;20205;-78
2022/11/08 06:41:35;;;;;;;13.73;8.53;;;8.30;99.90;;;;;;4917382;29;20211;-79
2022/11/08 06:44:02;;;;;;;18.67;8.63;;;8.30;99.90;;;;;;4917404;29;20201;-78
2022/11/08 06:46:29;;;;;;;15.10;8.80;;;8.30;99.90;;;;;;4917424;29;20617;-81
2022/11/08 06:48:57;;;;;;;15.60;8.63;;;8.30;99.90;;;;;;4916957;29;20208;-81
2022/11/08 06:51:24;;;;;;;16.07;9.60;;;8.30;99.90;;;;;;4916893;29;20278;-78
2022/11/08 06:53:51;;;;;;;14.93;9.00;;;8.30;99.90;;;;;;4917250;29;20210;-79
2022/11/08 06:56:19;;;;;;;20.13;9.63;;;8.30;1.00;;;;;;4916862;29;20565;-79
2022/11/08 06:58:46;;;;;;;21.17;10.20;;;8.30;1.00;;;;;;4917076;29;20667;-79
2022/11/08 07:01:13;;;;;;;22.73;11.03;;;8.30;1.00;;;;;;4917009;29;20240;-78
2022/11/08 07:03:40;;;;;;;18.23;10.77;;;8.40;1.00;;;;;;4917097;29;20207;-78
2022/11/08 07:06:08;;;;;;;24.53;10.83;;;8.40;1.00;;;;;;4917003;29;20199;-79
2022/11/08 07:08:35;;;;;;;25.00;10.67;;;8.40;1.00;;;;;;4916704;29;20207;-80
2022/11/08 07:11:03;;;;;;;23.83;11.27;;;8.50;1.00;;;;;;4916850;29;20222;-79
2022/11/08 07:13:32;;;;;;;18.13;10.60;;;8.60;1.00;;;;;;4916592;29;20251;-79
2022/11/08 07:16:00;;;;;;;21.00;10.33;;;8.70;1.00;;;;;;4916534;29;20666;-78
2022/11/08 07:18:27;;;;;;;16.77;9.83;;;8.80;1.00;;;;;;4916556;29;20205;-79
2022/11/08 07:20:59;;;;;;;19.57;9.90;;;8.90;1.00;;;;;;4916748;29;20232;-78
2022/11/08 07:23:26;;;;;;;16.27;9.50;;;9.00;1.00;;;;;;4916713;29;20276;-78
2022/11/08 07:25:53;;;;;;;24.27;15.10;;;9.10;1.00;;;;;;4916736;29;20200;-78
2022/11/08 07:28:20;;;;;;;16.40;10.00;;;9.20;1.00;;;;;;4915731;29;20219;-79
2022/11/08 07:30:49;;;;;;;18.97;11.87;;;9.20;1.00;;;;;;4916439;29;20246;-77
2022/11/08 07:33:16;;;;;;;21.27;13.67;;;9.40;99.90;;;;;;4916805;29;20254;-79
2022/11/08 07:35:46;;;;;;;17.70;9.83;;;9.40;99.90;;;;;;4916598;29;20204;-78
2022/11/08 07:38:13;;;;;;;16.50;8.43;;;9.50;99.90;;;;;;4916182;29;20631;-79
2022/11/08 07:40:41;;;;;;;15.17;9.33;;;9.60;99.90;;;;;;4916142;29;20205;-78
2022/11/08 07:43:08;;;;;;;14.30;9.10;;;9.60;99.90;;;;;;4916417;29;20195;-78
2022/11/08 07:45:35;;;;;;;19.20;8.77;;;9.60;99.90;;;;;;4916389;29;20197;-77
2022/11/08 07:48:06;;;;;;;16.77;9.27;;;9.70;99.90;;;;;;4916265;29;20658;-79
2022/11/08 07:50:33;;;;;;;15.47;9.90;;;9.80;99.90;;;;;;4916462;29;20214;-79
2022/11/08 07:53:00;;;;;;;16.70;10.13;;;9.80;99.90;;;;;;4916193;29;20224;-78
2022/11/08 07:55:27;;;;;;;13.97;9.07;;;9.80;99.90;;;;;;4916275;29;20264;-79
2022/11/08 07:58:00;;;;;;;15.93;8.87;;;9.90;99.90;;;;;;4916255;29;20208;-78
2022/11/08 08:00:27;;;;;;;17.73;10.27;;;9.90;99.90;;;;;;4916238;29;20263;-78
2022/11/08 08:02:58;;;;;;;15.17;10.87;;;9.90;56.90;;;;;;4916208;29;20213;-78
2022/11/08 08:05:27;;;;;;;20.07;10.60;;;9.90;99.90;;;;;;4915915;29;20299;-79
2022/11/08 08:07:57;;;;;;;16.93;10.07;;;9.90;99.90;;;;;;4915790;29;20289;-78
2022/11/08 08:10:24;;;;;;;22.00;11.67;;;9.90;99.90;;;;;;4915785;29;20233;-78
2022/11/08 08:12:51;;;;;;;16.77;10.40;;;9.90;99.90;;;;;;4915699;29;20221;-79
2022/11/08 08:15:18;;;;;;;15.07;9.90;;;9.90;99.90;;;;;;4916405;29;20187;-77
2022/11/08 08:17:45;;;;;;;17.40;10.93;;;10.00;99.90;;;;;;4915758;29;20264;-79
2022/11/08 08:20:14;;;;;;;19.27;10.60;;;10.00;99.90;;;;;;4915714;29;20217;-78
2022/11/08 08:22:45;;;;;;;15.30;11.43;;;10.00;99.90;;;;;;4915972;29;20331;-80
2022/11/08 08:25:13;;;;;;;12.47;8.80;;;10.10;99.90;;;;;;4915998;29;20650;-79
2022/11/08 08:27:40;;;;;;;15.27;8.67;;;10.20;99.90;;;;;;4915908;29;20298;-78
2022/11/08 08:30:08;;;;;;;12.07;8.27;;;10.30;99.90;;;;;;4915964;29;20591;-79
2022/11/08 08:32:35;;;;;;;18.10;9.60;;;10.50;99.90;;;;;;4915510;29;20225;-79
2022/11/08 08:35:02;;;;;;;51.53;38.63;;;10.60;99.90;;;;;;4915899;29;20229;-78
2022/11/08 08:37:29;;;;;;;50.13;38.57;;;10.60;1.00;;;;;;4915840;29;20206;-78
2022/11/08 08:39:58;;;;;;;16.53;11.60;;;10.70;1.00;;;;;;4916969;29;20206;-79
2022/11/08 08:42:25;;;;;;;14.50;9.70;;;10.80;1.00;;;;;;4919306;29;20196;-79
2022/11/08 08:44:52;;;;;;;16.23;8.87;;;10.90;1.00;;;;;;4919679;29;20209;-79
2022/11/08 08:47:19;;;;;;;16.93;9.40;;;10.90;1.00;;;;;;4919479;29;20205;-79
2022/11/08 08:49:46;;;;;;;15.23;9.00;;;11.00;1.00;;;;;;4919110;29;20209;-79
2022/11/08 08:52:13;;;;;;;22.07;10.43;;;11.10;1.00;;;;;;4919316;29;20277;-79
2022/11/08 08:54:40;;;;;;;16.83;9.73;;;11.10;1.00;;;;;;4919157;29;20203;-79
2022/11/08 08:57:08;;;;;;;13.37;8.90;;;11.20;6.00;;;;;;4919324;29;20206;-78
2022/11/08 08:59:35;;;;;;;12.63;8.73;;;11.30;1.00;;;;;;4919289;29;20211;-79
2022/11/08 09:02:02;;;;;;;11.73;8.10;;;11.40;99.90;;;;;;4919255;29;20204;-79
2022/11/08 09:04:29;;;;;;;16.57;8.43;;;11.40;99.90;;;;;;4919206;29;20263;-78
2022/11/08 09:06:56;;;;;;;15.10;7.77;;;11.50;99.90;;;;;;4918843;29;20210;-79
2022/11/08 09:09:24;;;;;;;15.73;8.27;;;11.60;99.90;;;;;;4919073;29;20738;-79
2022/11/08 09:11:51;;;;;;;14.53;7.87;;;11.70;99.90;;;;;;4918940;29;20324;-79
2022/11/08 09:14:19;;;;;;;13.50;6.80;;;11.70;1.00;;;;;;4918609;29;20233;-78
2022/11/08 09:16:46;;;;;;;9.70;6.90;;;11.80;1.00;;;;;;4918693;29;20612;-78
2022/11/08 09:19:13;;;;;;;15.27;8.17;;;11.90;1.00;;;;;;4918939;29;20205;-79
2022/11/08 09:21:40;;;;;;;15.97;7.63;;;11.90;1.00;;;;;;4918943;29;20281;-79
2022/11/08 09:24:07;;;;;;;12.07;7.40;;;11.90;99.90;;;;;;4918507;29;20206;-79
2022/11/08 09:26:34;;;;;;;22.03;7.17;;;12.00;1.00;;;;;;4918609;29;20200;-79
2022/11/08 09:29:01;;;;;;;13.60;6.40;;;12.10;1.00;;;;;;4918728;29;20213;-79
2022/11/08 09:31:30;;;;;;;15.27;6.97;;;12.10;99.90;;;;;;4918376;29;20254;-78
2022/11/08 09:33:57;;;;;;;17.70;6.80;;;12.20;99.90;;;;;;4918745;29;20256;-79
2022/11/08 09:36:24;;;;;;;20.93;7.87;;;12.30;99.90;;;;;;4918851;29;20209;-79
2022/11/08 09:38:51;;;;;;;13.80;6.17;;;12.30;99.90;;;;;;4918335;29;20214;-79
2022/11/08 09:41:44;;;;;;;10.70;5.50;;;12.40;99.90;;;;;;4918640;29;20213;-80
2022/11/08 09:44:29;;;;;;;8.83;4.63;;;12.40;1.00;;;;;;4918477;29;20205;-79
2022/11/08 09:47:02;;;;;;;16.27;5.50;;;12.50;99.90;;;;;;4918432;29;20215;-79
2022/11/08 09:49:35;;;;;;;8.93;5.43;;;12.50;22.20;;;;;;4918383;29;20188;-79
2022/11/08 09:52:04;;;;;;;11.93;4.87;;;12.50;1.00;;;;;;4917442;29;20258;-78
2022/11/08 09:54:37;;;;;;;13.93;5.87;;;12.60;1.00;;;;;;4918250;29;20232;-78
2022/11/08 09:57:06;;;;;;;12.80;4.83;;;12.60;1.00;;;;;;4918351;29;20184;-79
2022/11/08 09:59:39;;;;;;;11.33;5.23;;;12.70;99.90;;;;;;4918240;29;20203;-80
2022/11/08 10:02:16;;;;;;;11.87;4.70;;;12.80;99.90;;;;;;4918233;29;20205;-78
2022/11/08 10:04:46;;;;;;;11.40;5.23;;;12.80;1.00;;;;;;4918173;29;20269;-80
2022/11/08 10:07:24;;;;;;;8.37;4.30;;;12.90;1.00;;;;;;4918067;29;20200;-79
2022/11/08 10:10:17;;;;;;;12.33;4.50;;;13.00;1.00;;;;;;4918142;29;20209;-79
2022/11/08 10:12:54;;;;;;;11.60;4.60;;;13.00;1.00;;;;;;4917593;29;20234;-79
2022/11/08 10:15:29;;;;;;;8.07;3.60;;;13.20;99.90;;;;;;4917643;29;20190;-79
2022/11/08 10:18:30;;;;;;;9.30;4.30;;;13.20;1.00;;;;;;4918129;29;20516;-78
2022/11/08 10:21:05;;;;;;;18.73;6.03;;;13.30;1.00;;;;;;4910483;29;20203;-78
2022/11/08 10:23:42;;;;;;;24.20;4.60;;;13.30;1.00;;;;;;4917556;29;20638;-80
2022/11/08 10:26:14;;;;;;;17.90;5.73;;;13.40;99.90;;;;;;4917790;29;20189;-79
2022/11/08 10:28:48;;;;;;;9.17;4.00;;;13.40;99.90;;;;;;4917471;29;20228;-80
2022/11/08 10:31:17;;;;;;;10.87;5.30;;;13.50;99.90;;;;;;4917425;29;20191;-79
2022/11/08 10:33:49;;;;;;;8.83;4.10;;;13.60;1.00;;;;;;4917490;29;20332;-80
2022/11/08 10:36:22;;;;;;;14.43;5.20;;;13.60;1.00;;;;;;4917251;29;20271;-79
2022/11/08 10:38:57;;;;;;;11.53;3.90;;;13.60;1.00;;;;;;4917552;29;20192;-78
2022/11/08 10:41:31;;;;;;;9.13;4.10;;;13.60;1.00;;;;;;4917519;29;20267;-78
2022/11/08 10:44:05;;;;;;;6.50;3.33;;;13.70;1.00;;;;;;4917702;29;20240;-78
2022/11/08 10:46:40;;;;;;;6.57;3.70;;;13.80;1.00;;;;;;4917398;29;20280;-80
2022/11/08 10:49:20;;;;;;;11.17;5.17;;;13.80;1.00;;;;;;4917362;29;20192;-79
2022/11/08 10:51:49;;;;;;;13.20;8.53;;;13.90;1.00;;;;;;4917314;29;20195;-79
2022/11/08 10:54:48;;;;;;;23.23;10.70;;;14.00;99.90;;;;;;4916983;29;20728;-80
2022/11/08 10:57:17;;;;;;;8.47;3.67;;;14.00;99.90;;;;;;4917229;29;20695;-78
2022/11/08 10:59:45;;;;;;;6.47;3.20;;;14.10;99.90;;;;;;4916898;29;20205;-79
2022/11/08 11:02:22;;;;;;;8.53;3.10;;;14.20;99.90;;;;;;4916964;29;20212;-80
2022/11/08 11:04:52;;;;;;;7.10;3.00;;;14.20;99.90;;;;;;4917098;29;20199;-80
2022/11/08 11:07:35;;;;;;;7.23;2.83;;;14.30;94.10;;;;;;4916992;29;20205;-79
2022/11/08 11:10:23;;;;;;;6.40;2.80;;;14.30;13.40;;;;;;4916886;29;20655;-79
2022/11/08 11:12:51;;;;;;;10.23;3.17;;;14.30;1.00;;;;;;4916353;29;20745;-80
2022/11/08 11:15:19;;;;;;;10.53;3.17;;;14.40;1.00;;;;;;4916950;29;20190;-79
2022/11/08 11:17:47;;;;;;;9.17;2.83;;;14.40;1.00;;;;;;4916757;29;20290;-80
2022/11/08 11:20:22;;;;;;;20.80;4.57;;;14.50;1.00;;;;;;4916447;29;20652;-78
2022/11/08 11:22:52;;;;;;;21.97;3.70;;;14.60;1.00;;;;;;4916520;29;20593;-78
2022/11/08 11:25:21;;;;;;;10.90;3.00;;;14.70;1.00;;;;;;4916399;29;20762;-80
2022/11/08 11:27:53;;;;;;;6.57;2.78;;;14.80;1.00;;;;;;4917613;29;20300;-78
2022/11/08 11:30:29;;;;;;;7.03;2.67;;;14.90;1.00;;;;;;4916353;29;20273;-78
2022/11/08 11:33:03;;;;;;;8.05;2.75;;;14.90;1.00;;;;;;4916494;29;20223;-80
2022/11/08 11:35:44;;;;;;;13.63;3.58;;;14.90;99.90;;;;;;4917590;29;20191;-79
2022/11/08 11:38:23;;;;;;;8.50;2.47;;;14.90;1.00;;;;;;4916535;29;20184;-82
2022/11/08 11:40:53;;;;;;;6.68;2.95;;;15.00;99.90;;;;;;4916222;29;20573;-81
2022/11/08 11:43:26;;;;;;;6.05;2.83;;;15.00;99.90;;;;;;4916463;29;20203;-80
2022/11/08 11:45:58;;;;;;;8.05;3.50;;;15.10;99.90;;;;;;4916492;29;20188;-81
2022/11/08 11:48:28;;;;;;;7.45;2.80;;;15.10;99.90;;;;;;4916365;29;20187;-80
2022/11/08 11:50:57;;;;;;;10.80;3.80;;;15.10;99.90;;;;;;4916042;29;20191;-81
2022/11/08 11:53:27;;;;;;;10.37;4.73;;;15.00;99.90;;;;;;4916255;29;20232;-80
2022/11/08 11:56:22;;;;;;;17.00;4.30;;;15.00;99.90;;;;;;4918602;29;20203;-79
2022/11/08 11:59:23;;;;;;;17.08;4.65;;;14.90;99.90;;;;;;4914512;29;20204;-80
2022/11/08 12:02:32;;;;;;;12.40;4.90;;;14.90;99.90;;;;;;4912791;29;20254;-78
2022/11/08 12:05:17;;;;;;;33.83;6.80;;;15.00;99.90;;;;;;4915713;29;20692;-78
2022/11/08 12:07:51;;;;;;;11.23;3.38;;;15.00;99.90;;;;;;4916145;29;20275;-81
2022/11/08 12:10:26;;;;;;;14.68;4.50;;;15.10;99.90;;;;;;4916172;29;20533;-80
2022/11/08 12:13:02;;;;;;;9.60;3.65;;;15.10;99.90;;;;;;4915777;29;20207;-79
2022/11/08 12:15:38;;;;;;;15.18;8.68;;;15.10;99.90;;;;;;4915601;29;20179;-80
2022/11/08 12:18:34;;;;;;;12.55;4.22;;;15.10;99.90;;;;;;4915912;29;20596;-80
2022/11/08 12:21:08;;;;;;;10.90;4.13;;;15.10;99.90;;;;;;4915749;29;20199;-80
2022/11/08 12:24:06;;;;;;;7.82;3.67;;;15.10;99.90;;;;;;4916252;29;20239;-80
2022/11/08 12:26:41;;;;;;;6.63;3.10;;;15.20;99.90;;;;;;4916110;29;20248;-80
2022/11/08 12:29:29;;;;;;;8.07;2.58;;;15.20;92.80;;;;;;4916193;29;20190;-79
2022/11/08 12:32:12;;;;;;;8.90;4.50;;;15.30;67.30;;;;;;4915896;29;20200;-78
2022/11/08 12:34:51;;;;;;;13.20;4.28;;;15.30;1.00;;;;;;4915984;29;20250;-80
2022/11/08 12:37:31;;;;;;;33.33;5.35;;;15.30;1.00;;;;;;4915849;29;20235;-80
2022/11/08 12:40:02;;;;;;;7.95;3.80;;;15.40;1.00;;;;;;4915896;29;20183;-79
2022/11/08 12:43:01;;;;;;;6.00;2.28;;;15.40;1.00;;;;;;4915872;29;20244;-80
2022/11/08 12:45:37;;;;;;;7.53;2.58;;;15.40;1.00;;;;;;4913856;29;20212;-79
2022/11/08 12:48:14;;;;;;;20.90;5.03;;;15.30;1.00;;;;;;4915820;29;20245;-80
2022/11/08 12:50:50;;;;;;;10.13;3.97;;;15.30;1.00;;;;;;4915454;29;20188;-80
2022/11/08 12:53:39;;;;;;;11.30;4.25;;;15.30;1.00;;;;;;4915698;29;20204;-80
2022/11/08 12:56:13;;;;;;;11.65;3.58;;;15.30;1.00;;;;;;4915708;29;20191;-80
2022/11/08 12:58:45;;;;;;;15.00;4.30;;;15.30;1.00;;;;;;4915774;29;20190;-81
2022/11/08 13:01:15;;;;;;;16.98;4.78;;;15.20;1.00;;;;;;4915416;29;20241;-79
2022/11/08 13:04:17;;;;;;;12.77;4.30;;;15.20;1.00;;;;;;4915286;29;20555;-79
2022/11/08 13:06:50;;;;;;;12.60;4.43;;;15.30;1.00;;;;;;4908366;29;20211;-80
2022/11/08 13:09:27;;;;;;;13.48;5.03;;;15.30;1.00;;;;;;4915669;29;20193;-80
2022/11/08 13:12:06;;;;;;;7.55;2.90;;;15.30;1.00;;;;;;4915286;29;20188;-80
2022/11/08 13:14:34;;;;;;;22.63;6.13;;;15.30;1.00;;;;;;4915021;29;20774;-80
2022/11/08 13:17:21;;;;;;;9.98;4.55;;;15.30;1.00;;;;;;4915235;29;20260;-80
2022/11/08 13:20:05;;;;;;;17.27;4.10;;;15.30;1.00;;;;;;4915189;29;20188;-80
2022/11/08 13:22:56;;;;;;;11.23;3.33;;;15.30;1.00;;;;;;4915247;29;20201;-80
2022/11/08 13:25:35;;;;;;;7.88;3.58;;;15.30;1.00;;;;;;4915366;29;20208;-79
2022/11/08 13:28:38;;;;;;;9.10;2.83;;;15.30;1.00;;;;;;4917999;29;20456;-81
2022/11/08 13:31:30;;;;;;;5.10;2.33;;;15.30;1.00;;;;;;4918448;29;20260;-81